2NC7 weather

Scotland Neck East Airport
Scotland Neck, North Carolina, United States

Public forecast

Using degrees Fahrenheit for public forecast. Weather courtesy of forecast.io.

METAR (pilot weather report)

Closest report is Tri County Airport, 13.5 nm (25.0 km) NE. Retrieved 2019/06/26 03:40 UTC (19 minutes ago):

KASJ 260340Z AUTO 00000KT 10SM CLR 21/21 A2999 RMK AO2 T02140214

TAF (pilot weather forecast)

Forecast is more than 12 hours old.

Closest forecast is Rocky Mount Wilson Regional Airport, 30.4 nm (56.3 km) SW. Retrieved 2019/06/25 00:27 UTC (1 day ago):

TAF KRWI 252325Z 2600/2624 31004KT P6SM SCT250 FM261300 01008KT P6SM FEW200 FM261800 02005KT P6SM FEW200